Time;durP1;ratioP1;P1;durP2;ratioP2;P2;SDS_P1;SDS_P2;PMS_P1;PMS_P2;Temp;Humidity;BMP_temperature;BMP_pressure;BME280_temperature;BME280_humidity;BME280_pressure;Samples;Min_cycle;Max_cycle;Signal;HPM_P1;HPM_P2
2021/05/30 00:00:14;;;;;;;6.58;4.95;;;;;;;14.08;78.68;99088.16;130000;1101;22697;-65
2021/05/30 00:02:42;;;;;;;5.18;3.28;;;;;;;14.05;78.47;99086.00;129981;1101;22589;-65
2021/05/30 00:05:11;;;;;;;5.53;3.83;;;;;;;14.01;78.60;99092.34;130011;1101;22596;-62
2021/05/30 00:07:39;;;;;;;6.25;3.60;;;;;;;13.97;79.01;99091.31;129947;1101;22669;-62
2021/05/30 00:10:09;;;;;;;4.50;3.20;;;;;;;13.95;79.11;99085.30;129929;1101;22560;-62
2021/05/30 00:12:37;;;;;;;7.58;3.15;;;;;;;13.94;79.03;99097.36;129970;1101;22556;-62
2021/05/30 00:15:06;;;;;;;4.88;3.40;;;;;;;13.91;79.02;99101.49;130003;1101;22531;-62
2021/05/30 00:17:36;;;;;;;7.45;3.30;;;;;;;13.88;78.87;99095.77;129969;1101;22566;-62
2021/05/30 00:20:06;;;;;;;7.60;3.50;;;;;;;13.88;79.29;99101.25;130015;1101;23589;-62
2021/05/30 00:22:55;;;;;;;6.93;3.43;;;;;;;13.86;79.00;99098.80;129974;1101;22567;-62
2021/05/30 00:25:23;;;;;;;4.05;3.65;;;;;;;13.86;79.37;99097.98;129982;1101;22568;-62
2021/05/30 00:27:51;;;;;;;5.08;3.35;;;;;;;13.85;79.36;99091.69;130032;1101;22622;-62
2021/05/30 00:30:20;;;;;;;7.30;3.48;;;;;;;13.86;79.28;99087.03;130003;1101;22633;-62
2021/05/30 00:33:06;;;;;;;5.03;3.40;;;;;;;13.87;79.21;99091.40;129957;1101;22721;-61
2021/05/30 00:35:35;;;;;;;5.13;3.83;;;;;;;13.86;79.31;99089.77;130021;1101;22583;-65
2021/05/30 00:38:03;;;;;;;7.35;3.48;;;;;;;13.85;79.34;99090.90;129953;1101;22646;-65
2021/05/30 00:40:31;;;;;;;6.20;3.55;;;;;;;13.85;79.14;99093.64;129970;1101;22905;-65
2021/05/30 00:43:00;;;;;;;6.63;3.25;;;;;;;13.87;78.99;99100.43;129949;1101;22571;-65
2021/05/30 00:45:31;;;;;;;4.35;3.63;;;;;;;13.87;79.36;99100.43;130015;1101;22563;-65
2021/05/30 00:48:00;;;;;;;8.08;3.70;;;;;;;13.87;78.94;99102.35;129980;1101;22623;-65
2021/05/30 00:50:28;;;;;;;7.60;3.40;;;;;;;13.84;79.06;99097.48;130032;1101;22609;-65
2021/05/30 00:52:58;;;;;;;7.13;3.25;;;;;;;13.85;78.63;99102.64;129959;1101;22603;-65
2021/05/30 00:55:27;;;;;;;4.85;3.70;;;;;;;13.85;78.90;99110.06;129967;1101;22564;-65
2021/05/30 00:57:55;;;;;;;6.88;3.88;;;;;;;13.82;78.56;99105.98;129954;1101;22619;-65
2021/05/30 01:00:24;;;;;;;5.45;3.33;;;;;;;13.83;78.76;99101.33;130020;1101;23931;-65
2021/05/30 01:02:52;;;;;;;4.48;3.50;;;;;;;13.81;78.87;99112.56;129942;1101;22666;-65
2021/05/30 01:05:21;;;;;;;5.40;3.23;;;;;;;13.80;79.00;99111.74;130018;1101;22669;-65
2021/05/30 01:07:49;;;;;;;8.15;4.20;;;;;;;13.82;78.71;99114.20;130060;1101;22682;-65
2021/05/30 01:10:26;;;;;;;5.30;3.75;;;;;;;13.81;78.69;99107.08;129954;1101;22550;-65
2021/05/30 01:12:55;;;;;;;5.45;3.78;;;;;;;13.80;78.44;99106.27;129999;1101;23136;-64
2021/05/30 01:15:25;;;;;;;5.20;3.83;;;;;;;13.78;78.95;99102.17;129973;1101;22597;-64
2021/05/30 01:17:54;;;;;;;8.75;4.28;;;;;;;13.77;78.38;99108.76;129990;1101;22586;-65
2021/05/30 01:20:39;;;;;;;4.90;3.68;;;;;;;13.76;78.73;99102.47;129956;1101;22554;-64
2021/05/30 01:23:10;;;;;;;4.60;3.68;;;;;;;13.75;78.78;99097.27;130024;1101;22630;-65
2021/05/30 01:25:39;;;;;;;6.45;4.38;;;;;;;13.74;78.62;99104.67;130035;1101;23043;-64
2021/05/30 01:28:07;;;;;;;8.98;5.60;;;;;;;13.74;78.88;99101.93;129996;1101;22556;-65
2021/05/30 01:30:36;;;;;;;6.55;4.58;;;;;;;13.73;78.99;99100.30;129988;1101;22580;-65
2021/05/30 01:33:05;;;;;;;4.88;3.88;;;;;;;13.73;78.72;99103.03;130026;1101;22569;-65
2021/05/30 01:35:34;;;;;;;8.70;4.68;;;;;;;13.71;79.03;99094.29;129959;1101;22531;-65
2021/05/30 01:38:02;;;;;;;5.20;4.20;;;;;;;13.71;78.87;99097.03;130009;1101;23162;-65
2021/05/30 01:40:31;;;;;;;5.58;3.95;;;;;;;13.71;79.10;99105.24;129967;1101;22561;-65
2021/05/30 01:42:59;;;;;;;7.60;4.28;;;;;;;13.71;78.80;99102.50;129989;1101;22556;-65
2021/05/30 01:45:30;;;;;;;10.18;4.13;;;;;;;13.73;78.72;99107.69;129943;1101;22637;-65
2021/05/30 01:47:59;;;;;;;5.08;4.25;;;;;;;13.72;78.88;99108.80;130039;1101;22650;-65
2021/05/30 01:50:28;;;;;;;8.88;4.70;;;;;;;13.72;78.79;99115.09;129963;1101;22558;-66
2021/05/30 01:53:00;;;;;;;7.55;4.45;;;;;;;13.73;78.91;99113.98;130366;1098;22634;-65
2021/05/30 01:55:41;;;;;;;4.93;3.83;;;;;;;13.71;78.76;99121.67;130302;1098;22629;-65
2021/05/30 01:58:09;;;;;;;6.63;4.45;;;;;;;13.70;79.08;99116.51;130404;1098;22754;-65
2021/05/30 02:00:38;;;;;;;6.15;4.10;;;;;;;13.71;79.25;99124.41;130348;1098;23955;-65
2021/05/30 02:03:06;;;;;;;6.65;4.88;;;;;;;13.70;79.23;99122.80;130372;1098;25459;-65
2021/05/30 02:05:36;;;;;;;5.58;4.73;;;;;;;13.68;79.15;99111.31;130376;1098;23444;-65
2021/05/30 02:08:07;;;;;;;9.33;4.48;;;;;;;13.70;79.69;99116.51;130360;1098;22593;-65
2021/05/30 02:10:40;;;;;;;5.33;4.15;;;;;;;13.70;79.53;99106.38;130341;1098;22569;-65
2021/05/30 02:13:08;;;;;;;7.20;5.40;;;;;;;13.70;79.30;99106.38;130390;1098;22567;-63
2021/05/30 02:15:36;;;;;;;7.00;5.98;;;;;;;13.70;79.53;99109.11;130376;1098;22687;-60
2021/05/30 02:18:05;;;;;;;12.20;5.70;;;;;;;13.69;79.55;99106.66;130360;1098;22667;-59
2021/05/30 02:20:40;;;;;;;12.05;6.53;;;;;;;13.67;79.55;99109.69;130380;1098;22502;-59
2021/05/30 02:23:12;;;;;;;13.00;5.95;;;;;;;13.65;79.60;99108.33;130331;1098;22553;-61
2021/05/30 02:25:41;;;;;;;13.73;6.88;;;;;;;13.63;79.71;99110.54;130348;1098;22587;-61
2021/05/30 02:28:10;;;;;;;7.58;5.58;;;;;;;13.63;80.36;99113.28;130375;1098;22550;-61
2021/05/30 02:30:38;;;;;;;6.70;5.50;;;;;;;13.61;80.37;99112.73;130372;1098;22553;-61
2021/05/30 02:33:06;;;;;;;8.98;4.88;;;;;;;13.60;80.86;99120.14;130303;1098;22657;-61
2021/05/30 02:35:35;;;;;;;7.78;5.45;;;;;;;13.61;80.67;99118.22;130341;1098;22542;-61
2021/05/30 02:38:04;;;;;;;8.95;4.53;;;;;;;13.61;80.91;99119.03;130336;1098;22515;-62
2021/05/30 02:40:32;;;;;;;10.08;5.15;;;;;;;13.65;80.36;99127.50;130408;1098;23067;-62
2021/05/30 02:43:01;;;;;;;10.03;5.68;;;;;;;13.68;80.93;99127.75;130313;1098;22639;-62
2021/05/30 02:45:29;;;;;;;8.60;6.23;;;;;;;13.71;80.91;99129.06;130403;1098;22544;-62
2021/05/30 02:47:58;;;;;;;10.40;5.70;;;;;;;13.76;80.75;99134.50;130355;1098;23093;-62
2021/05/30 02:50:27;;;;;;;8.18;5.03;;;;;;;13.80;80.75;99130.09;130410;1098;22587;-62
2021/05/30 02:52:55;;;;;;;7.55;5.80;;;;;;;13.82;80.53;99124.33;130318;1098;22550;-62
2021/05/30 02:55:23;;;;;;;10.88;5.65;;;;;;;13.83;80.52;99126.78;130357;1098;22598;-62
2021/05/30 02:57:52;;;;;;;5.73;4.90;;;;;;;13.85;80.57;99127.28;130336;1098;22606;-62
2021/05/30 03:00:24;;;;;;;5.65;4.30;;;;;;;13.86;80.33;99126.18;130415;1098;22500;-61
2021/05/30 03:02:52;;;;;;;9.45;4.68;;;;;;;13.84;80.18;99130.34;130285;1098;22550;-62
2021/05/30 03:05:21;;;;;;;5.35;4.05;;;;;;;13.83;80.15;99135.00;130358;1098;22537;-62
2021/05/30 03:07:51;;;;;;;4.63;4.15;;;;;;;13.82;80.25;99140.76;130357;1098;22581;-62
2021/05/30 03:10:19;;;;;;;5.58;4.33;;;;;;;13.82;80.69;99133.36;130381;1098;22536;-61
2021/05/30 03:12:49;;;;;;;8.20;4.30;;;;;;;13.82;80.19;99141.58;130340;1098;22982;-61
2021/05/30 03:15:18;;;;;;;11.70;4.08;;;;;;;13.83;80.22;99140.48;130372;1098;22501;-65
2021/05/30 03:17:53;;;;;;;6.13;3.87;;;;;;;13.84;80.04;99138.55;130369;1098;22552;-65
2021/05/30 03:20:22;;;;;;;8.50;4.88;;;;;;;13.82;80.05;99136.10;130329;1098;22535;-65
2021/05/30 03:22:51;;;;;;;12.70;5.35;;;;;;;13.82;80.31;99141.58;130381;1098;22710;-65
2021/05/30 03:25:19;;;;;;;14.08;7.13;;;;;;;13.80;80.18;99144.60;130343;1098;23533;-65
2021/05/30 03:27:49;;;;;;;8.68;4.68;;;;;;;13.78;80.16;99144.07;130395;1098;22576;-65
2021/05/30 03:30:18;;;;;;;8.90;4.48;;;;;;;13.79;80.48;99142.97;130316;1098;23357;-65
2021/05/30 03:32:46;;;;;;;8.05;4.15;;;;;;;13.78;80.23;99141.33;130368;1098;23526;-65
2021/05/30 03:35:15;;;;;;;5.70;4.45;;;;;;;13.76;79.97;99138.06;130315;1098;22562;-65
2021/05/30 03:37:44;;;;;;;8.10;4.60;;;;;;;13.73;80.24;99141.37;130397;1098;23070;-65
2021/05/30 03:40:44;;;;;;;7.10;4.10;;;;;;;13.70;79.98;99139.23;130361;1098;23483;-65
2021/05/30 03:43:02;;;;;;;5.13;3.95;;;;;;;13.67;79.87;99145.27;130381;1098;22477;-64
2021/05/30 03:45:31;;;;;;;10.70;5.45;;;;;;;13.66;80.29;99145.56;130353;1098;22634;-64
2021/05/30 03:48:00;;;;;;;7.80;4.43;;;;;;;13.67;80.31;99144.45;130378;1098;22646;-64
2021/05/30 03:50:28;;;;;;;6.80;4.38;;;;;;;13.65;79.93;99139.27;130323;1098;23066;-65
2021/05/30 03:52:57;;;;;;;10.50;4.60;;;;;;;13.66;80.16;99143.64;130363;1098;22570;-65
2021/05/30 03:55:25;;;;;;;4.58;4.18;;;;;;;13.68;80.09;99146.09;129821;1098;22537;-64
2021/05/30 03:57:54;;;;;;;9.18;4.15;;;;;;;13.70;79.98;99149.36;130371;1098;22586;-65
2021/05/30 04:00:23;;;;;;;5.83;4.50;;;;;;;13.71;80.12;99151.78;130310;1098;23081;-64
2021/05/30 04:02:51;;;;;;;4.55;4.15;;;;;;;13.72;80.02;99156.16;130333;1098;23445;-64
2021/05/30 04:05:19;;;;;;;5.10;4.15;;;;;;;13.71;79.82;99157.27;130348;1098;22566;-65
2021/05/30 04:07:48;;;;;;;8.70;4.48;;;;;;;13.71;79.69;99153.70;130373;1098;22568;-64
2021/05/30 04:10:16;;;;;;;5.90;4.05;;;;;;;13.70;79.32;99155.66;130296;1098;22746;-64
2021/05/30 04:12:45;;;;;;;6.18;4.00;;;;;;;13.72;79.22;99158.08;130394;1098;23303;-65
2021/05/30 04:15:14;;;;;;;9.13;4.10;;;;;;;13.70;79.13;99147.45;130349;1098;22570;-65
2021/05/30 04:17:43;;;;;;;5.90;4.13;;;;;;;13.71;79.33;99140.02;130330;1098;23142;-65
2021/05/30 04:20:15;;;;;;;6.60;4.05;;;;;;;13.72;79.20;99138.91;130405;1098;23305;-64
2021/05/30 04:22:44;;;;;;;10.18;4.18;;;;;;;13.74;79.53;99142.19;130339;1098;22526;-65
2021/05/30 04:25:13;;;;;;;6.10;4.15;;;;;;;13.75;79.03;99141.90;130265;1091;22523;-64
2021/05/30 04:27:42;;;;;;;5.30;3.70;;;;;;;13.75;79.29;99139.16;130327;1098;22618;-64
2021/05/30 04:30:11;;;;;;;5.43;4.28;;;;;;;13.75;79.39;99141.90;130375;1098;22569;-65
2021/05/30 04:32:40;;;;;;;5.83;4.15;;;;;;;13.74;79.41;99142.19;130340;1098;22623;-65
2021/05/30 04:35:09;;;;;;;5.00;3.90;;;;;;;13.75;79.72;99136.42;130358;1098;22574;-65
2021/05/30 04:37:38;;;;;;;9.50;4.93;;;;;;;13.77;79.50;99138.88;130357;1098;22637;-65
2021/05/30 04:40:07;;;;;;;5.05;3.85;;;;;;;13.80;79.53;99136.39;130328;1098;23898;-65
2021/05/30 04:42:36;;;;;;;9.53;4.20;;;;;;;13.86;79.40;99137.14;130264;1098;22615;-65
2021/05/30 04:45:05;;;;;;;7.28;3.80;;;;;;;13.88;79.60;99134.11;130363;1098;22627;-64
2021/05/30 04:47:54;;;;;;;7.38;3.70;;;;;;;13.92;79.08;99132.44;130370;1098;22750;-65
2021/05/30 04:50:22;;;;;;;5.53;4.10;;;;;;;13.94;79.36;99141.19;130373;1098;22577;-64
2021/05/30 04:52:50;;;;;;;9.08;3.50;;;;;;;13.95;79.24;99138.16;130357;1098;22582;-65
2021/05/30 04:55:19;;;;;;;7.18;3.65;;;;;;;13.98;79.32;99139.51;130368;1098;22549;-64
2021/05/30 04:57:48;;;;;;;6.38;3.15;;;;;;;13.99;79.16;99135.67;130326;1098;23141;-65
2021/05/30 05:00:17;;;;;;;7.05;2.78;;;;;;;13.98;78.82;99132.11;130394;1098;22529;-65
2021/05/30 05:02:46;;;;;;;4.63;3.00;;;;;;;13.98;78.82;99126.63;130320;1098;22510;-65
2021/05/30 05:05:14;;;;;;;5.83;3.15;;;;;;;13.99;78.85;99130.19;130372;1098;22575;-65
2021/05/30 05:07:44;;;;;;;4.95;3.68;;;;;;;14.01;79.06;99136.17;130336;1098;22601;-64
2021/05/30 05:10:13;;;;;;;3.33;2.60;;;;;;;14.02;79.15;99133.14;130403;1098;22645;-65
2021/05/30 05:12:41;;;;;;;3.70;2.55;;;;;;;14.03;79.27;99126.55;130272;1098;22676;-65
2021/05/30 05:15:11;;;;;;;5.85;3.88;;;;;;;14.03;78.64;99125.74;130387;1098;22593;-65
2021/05/30 05:17:39;;;;;;;3.55;2.90;;;;;;;14.02;78.88;99119.45;130257;1098;22571;-65
2021/05/30 05:20:09;;;;;;;4.70;3.20;;;;;;;14.01;78.63;99123.28;130358;1098;22561;-65
2021/05/30 05:22:37;;;;;;;3.60;2.73;;;;;;;14.02;78.97;99124.11;130372;1098;23052;-65
2021/05/30 05:25:10;;;;;;;4.25;3.05;;;;;;;14.01;78.76;99123.28;130236;1098;22613;-65
2021/05/30 05:27:38;;;;;;;3.95;2.93;;;;;;;14.01;78.80;99117.81;130333;1098;22589;-64
2021/05/30 05:30:08;;;;;;;8.15;3.20;;;;;;;14.02;78.51;99129.58;130290;1098;22543;-65
2021/05/30 05:32:36;;;;;;;2.98;2.78;;;;;;;14.03;78.65;99125.74;130371;1098;22667;-65
2021/05/30 05:35:06;;;;;;;5.15;2.80;;;;;;;14.05;78.72;99129.83;130338;1098;22490;-65
2021/05/30 05:37:34;;;;;;;3.35;2.55;;;;;;;14.06;78.15;99119.69;130329;1098;22558;-65
2021/05/30 05:40:03;;;;;;;3.28;2.50;;;;;;;14.09;78.51;99136.37;130318;1098;22546;-65
2021/05/30 05:42:37;;;;;;;7.63;3.35;;;;;;;14.12;78.29;99140.45;130359;1098;22649;-65
2021/05/30 05:45:06;;;;;;;4.93;2.83;;;;;;;14.13;77.87;99133.88;130305;1098;22593;-66
2021/05/30 05:47:35;;;;;;;7.25;3.83;;;;;;;14.13;77.67;99136.61;130343;1098;23011;-65
2021/05/30 05:50:05;;;;;;;6.75;3.50;;;;;;;14.14;77.75;99127.26;130282;1098;22573;-65
2021/05/30 05:52:33;;;;;;;5.08;2.95;;;;;;;14.15;77.86;99129.70;130358;1098;22597;-65
2021/05/30 05:55:02;;;;;;;2.58;2.35;;;;;;;14.20;77.46;99125.28;130293;1098;22666;-64
2021/05/30 05:57:31;;;;;;;2.90;2.33;;;;;;;14.18;77.04;99125.58;126057;1098;22805;-61
2021/05/30 05:59:59;;;;;;;4.25;2.90;;;;;;;14.19;77.26;99112.69;125702;1098;22770;-60
2021/05/30 06:02:27;;;;;;;3.90;2.70;;;;;;;14.20;77.15;99114.33;130145;1098;22536;-61
2021/05/30 06:04:56;;;;;;;4.63;2.38;;;;;;;14.21;76.85;99122.26;130299;1098;22593;-61
2021/05/30 06:07:24;;;;;;;4.55;2.80;;;;;;;14.22;77.14;99132.12;130330;1098;22653;-63
2021/05/30 06:09:52;;;;;;;6.13;2.73;;;;;;;14.25;77.25;99126.06;130354;1098;23355;-62
2021/05/30 06:12:21;;;;;;;5.60;2.83;;;;;;;14.31;76.93;99135.02;130339;1098;22554;-62
2021/05/30 06:14:49;;;;;;;4.73;2.55;;;;;;;14.35;77.43;99134.16;130354;1098;22562;-62
2021/05/30 06:17:18;;;;;;;5.15;2.73;;;;;;;14.38;76.97;99128.09;130361;1098;22566;-62
2021/05/30 06:19:46;;;;;;;4.93;3.00;;;;;;;14.42;77.03;99128.36;130358;1098;22621;-62
2021/05/30 06:22:16;;;;;;;6.03;2.75;;;;;;;14.45;76.50;99131.31;130323;1098;22521;-62
2021/05/30 06:24:45;;;;;;;4.73;2.78;;;;;;;14.48;76.09;99130.73;130359;1097;22570;-62
2021/05/30 06:27:14;;;;;;;6.63;2.95;;;;;;;14.49;76.11;99137.84;130344;1097;22745;-65
2021/05/30 06:29:42;;;;;;;2.95;2.75;;;;;;;14.49;76.24;99140.59;130331;1098;23346;-65
2021/05/30 06:32:10;;;;;;;4.33;2.60;;;;;;;14.50;76.10;99144.97;130321;1098;22701;-64
2021/05/30 06:34:39;;;;;;;6.48;2.90;;;;;;;14.54;75.72;99144.39;130352;1098;23003;-64
2021/05/30 06:37:10;;;;;;;5.55;3.13;;;;;;;14.54;75.68;99141.64;130288;1098;23368;-64
2021/05/30 06:39:38;;;;;;;4.70;2.60;;;;;;;14.57;75.80;99150.08;130381;1098;22564;-64
2021/05/30 06:42:07;;;;;;;3.03;2.70;;;;;;;14.60;75.71;99146.75;130315;1098;22525;-64
2021/05/30 06:44:36;;;;;;;5.75;2.85;;;;;;;14.62;75.46;99154.69;130364;1098;22491;-64
2021/05/30 06:47:04;;;;;;;2.48;2.28;;;;;;;14.67;74.76;99157.38;130306;1098;22670;-64
2021/05/30 06:49:33;;;;;;;3.23;2.93;;;;;;;14.70;74.87;99162.28;130363;1098;22571;-64
2021/05/30 06:52:02;;;;;;;2.83;2.30;;;;;;;14.73;74.40;99158.93;130338;1098;22561;-64
2021/05/30 06:54:31;;;;;;;3.88;2.63;;;;;;;14.80;73.86;99168.45;130382;1098;23133;-64
2021/05/30 06:56:59;;;;;;;3.63;2.40;;;;;;;14.88;73.88;99161.47;130316;1098;23254;-64
2021/05/30 06:59:28;;;;;;;4.65;2.70;;;;;;;14.95;73.78;99172.91;130358;1098;22709;-63
2021/05/30 07:01:56;;;;;;;7.10;2.70;;;;;;;15.02;73.08;99173.34;130298;1098;24292;-64
2021/05/30 07:04:27;;;;;;;3.90;2.53;;;;;;;15.05;72.90;99178.25;130333;1098;22536;-64
2021/05/30 07:06:58;;;;;;;5.30;2.90;;;;;;;15.08;72.68;99174.92;130324;1098;22549;-65
2021/05/30 07:09:27;;;;;;;5.40;2.65;;;;;;;15.10;72.61;99180.94;130371;1098;22560;-64
2021/05/30 07:11:55;;;;;;;4.40;2.43;;;;;;;15.13;71.98;99182.28;130350;1098;22577;-64
2021/05/30 07:14:24;;;;;;;7.13;2.70;;;;;;;15.14;72.11;99181.98;130351;1098;22570;-64
2021/05/30 07:16:53;;;;;;;5.53;2.60;;;;;;;15.15;72.05;99178.09;130375;1098;22582;-63
2021/05/30 07:19:23;;;;;;;11.13;2.65;;;;;;;15.20;71.44;99178.03;130340;1098;22615;-64
2021/05/30 07:21:51;;;;;;;4.63;2.20;;;;;;;15.25;70.72;99181.83;130395;1098;23339;-64
2021/05/30 07:24:20;;;;;;;2.87;2.57;;;;;;;15.29;70.45;99180.13;130316;1098;22527;-64
2021/05/30 07:26:48;;;;;;;3.33;2.35;;;;;;;15.30;69.80;99177.06;130369;1098;23282;-64
2021/05/30 07:29:17;;;;;;;4.38;2.53;;;;;;;15.32;69.92;99180.33;130333;1098;22519;-64
2021/05/30 07:31:48;;;;;;;4.98;2.65;;;;;;;15.34;69.65;99177.29;130374;1098;23401;-64
2021/05/30 07:34:16;;;;;;;2.40;2.20;;;;;;;15.35;69.77;99187.97;130336;1098;22554;-64
2021/05/30 07:36:56;;;;;;;7.33;2.30;;;;;;;15.36;69.49;99189.61;130420;1098;22509;-64
2021/05/30 07:39:25;;;;;;;6.63;2.20;;;;;;;15.36;69.84;99192.36;130325;1098;22555;-64
2021/05/30 07:41:53;;;;;;;4.98;2.35;;;;;;;15.38;69.45;99189.31;130363;1098;22551;-64
2021/05/30 07:44:21;;;;;;;5.75;2.33;;;;;;;15.39;68.83;99189.02;130356;1098;23399;-63
2021/05/30 07:46:50;;;;;;;2.63;2.20;;;;;;;15.42;68.87;99188.44;130394;1098;22670;-64
2021/05/30 07:49:19;;;;;;;2.70;2.20;;;;;;;15.44;69.20;99190.85;130351;1098;22636;-64
2021/05/30 07:51:47;;;;;;;2.23;2.03;;;;;;;15.51;69.04;99185.81;130394;1098;22557;-64
2021/05/30 07:54:17;;;;;;;5.43;2.30;;;;;;;15.55;68.83;99193.20;130366;1098;23499;-64
2021/05/30 07:56:46;;;;;;;3.50;2.28;;;;;;;15.60;68.66;99194.21;127450;1098;22855;-63
2021/05/30 07:59:14;;;;;;;2.93;2.30;;;;;;;15.61;68.80;99188.42;130319;1097;22556;-64
2021/05/30 08:01:42;;;;;;;8.93;2.20;;;;;;;15.63;69.77;99185.38;130394;1098;22541;-64
2021/05/30 08:04:11;;;;;;;2.63;2.20;;;;;;;15.63;69.73;99188.94;130352;1098;22676;-64
2021/05/30 08:06:40;;;;;;;3.30;2.43;;;;;;;15.64;69.86;99192.50;130340;1098;22592;-64
2021/05/30 08:09:08;;;;;;;2.88;2.00;;;;;;;15.63;69.36;99197.18;130385;1098;22716;-64
2021/05/30 08:11:58;;;;;;;4.00;2.20;;;;;;;15.60;69.01;99186.79;130366;1098;22545;-64
2021/05/30 08:14:28;;;;;;;6.48;2.20;;;;;;;15.57;69.39;99186.59;130383;1098;23170;-64
2021/05/30 08:16:58;;;;;;;1.75;1.65;;;;;;;15.53;69.17;99186.34;130352;1098;22538;-64
2021/05/30 08:19:27;;;;;;;4.15;2.15;;;;;;;15.49;68.97;99182.55;130358;1098;22575;-64
2021/05/30 08:22:02;;;;;;;6.53;2.10;;;;;;;15.47;69.23;99188.33;130319;1098;23267;-64
2021/05/30 08:24:31;;;;;;;4.75;2.18;;;;;;;15.46;69.13;99189.45;130394;1098;22538;-64
2021/05/30 08:27:01;;;;;;;2.33;2.13;;;;;;;15.46;69.81;99194.94;126783;1098;22857;-63
2021/05/30 08:29:30;;;;;;;4.08;2.45;;;;;;;15.48;69.21;99195.46;130307;1098;22631;-64
2021/05/30 08:31:59;;;;;;;4.33;2.13;;;;;;;15.49;69.24;99194.34;130322;1098;22554;-64
2021/05/30 08:34:29;;;;;;;8.63;2.25;;;;;;;15.53;68.95;99183.59;130337;1098;22587;-64
2021/05/30 08:36:57;;;;;;;4.65;1.90;;;;;;;15.57;68.98;99189.34;130338;1098;22521;-64
2021/05/30 08:39:25;;;;;;;3.15;2.30;;;;;;;15.62;68.92;99192.80;130368;1098;22549;-64
2021/05/30 08:41:54;;;;;;;4.38;2.08;;;;;;;15.67;68.94;99194.66;130374;1098;22522;-64
2021/05/30 08:44:22;;;;;;;3.50;2.40;;;;;;;15.73;68.94;99197.01;130407;1098;22777;-64
2021/05/30 08:46:51;;;;;;;3.33;2.20;;;;;;;15.79;68.89;99198.56;130312;1098;22547;-64
2021/05/30 08:49:20;;;;;;;2.63;2.10;;;;;;;15.85;69.68;99197.38;130409;1098;22712;-64
2021/05/30 08:51:48;;;;;;;5.65;2.50;;;;;;;15.92;69.37;99199.73;130346;1098;22534;-64
2021/05/30 08:54:18;;;;;;;3.68;2.30;;;;;;;15.96;69.08;99205.44;130347;1098;22647;-64
2021/05/30 08:56:47;;;;;;;2.93;2.15;;;;;;;15.97;68.88;99209.83;130359;1098;22534;-64
2021/05/30 08:59:16;;;;;;;6.55;2.23;;;;;;;15.95;68.62;99215.62;130354;1098;22725;-64
2021/05/30 09:01:45;;;;;;;3.45;1.95;;;;;;;15.93;68.55;99211.53;130304;1098;22541;-64
2021/05/30 09:04:14;;;;;;;3.53;2.15;;;;;;;15.88;68.05;99226.16;130359;1098;22546;-64
2021/05/30 09:06:45;;;;;;;4.50;2.20;;;;;;;15.83;67.84;99218.84;130343;1098;22517;-64
2021/05/30 09:09:15;;;;;;;2.28;2.08;;;;;;;15.76;67.90;99221.14;130305;1098;22545;-64
2021/05/30 09:11:51;;;;;;;3.15;2.50;;;;;;;15.69;68.32;99222.65;130336;1098;22525;-64
2021/05/30 09:14:24;;;;;;;4.23;2.80;;;;;;;15.64;68.87;99231.77;130391;1098;22662;-64
2021/05/30 09:17:03;;;;;;;5.25;2.20;;;;;;;15.61;68.77;99224.13;130355;1098;22570;-64
2021/05/30 09:19:43;;;;;;;2.00;1.80;;;;;;;15.60;68.87;99227.16;130387;1098;22560;-64
2021/05/30 09:22:32;;;;;;;5.05;1.83;;;;;;;15.58;68.88;99234.91;130328;1098;22652;-64
2021/05/30 09:25:06;;;;;;;2.05;1.68;;;;;;;15.52;68.59;99229.45;130381;1098;22544;-64
2021/05/30 09:27:35;;;;;;;3.10;1.90;;;;;;;15.45;69.18;99233.67;130312;1098;22592;-64
2021/05/30 09:30:22;;;;;;;2.45;1.68;;;;;;;15.37;68.86;99239.84;130380;1098;22758;-64
2021/05/30 09:33:01;;;;;;;5.88;2.43;;;;;;;15.24;69.54;99243.32;130351;1098;23517;-62
2021/05/30 09:35:38;;;;;;;7.18;2.60;;;;;;;15.11;69.78;99240.20;129745;1098;22597;-64
2021/05/30 09:38:08;;;;;;;3.13;2.20;;;;;;;15.02;70.57;99249.36;130299;1098;22602;-64
2021/05/30 09:41:03;;;;;;;7.53;2.00;;;;;;;14.91;70.23;99245.92;130386;1098;22533;-64
2021/05/30 09:43:36;;;;;;;6.55;2.15;;;;;;;14.79;70.02;99251.02;130347;1098;23368;-64
2021/05/30 09:46:12;;;;;;;5.65;2.23;;;;;;;14.72;70.20;99253.28;130391;1098;22553;-64
2021/05/30 09:48:51;;;;;;;5.78;2.38;;;;;;;14.66;70.40;99246.23;130314;1098;22768;-64
2021/05/30 09:51:35;;;;;;;5.63;2.25;;;;;;;14.59;70.35;99252.05;130393;1098;23213;-64
2021/05/30 09:54:08;;;;;;;7.30;2.50;;;;;;;14.56;70.74;99249.09;130346;1098;22557;-64
2021/05/30 09:56:45;;;;;;;5.80;2.43;;;;;;;14.53;71.11;99247.75;130359;1098;23386;-64
2021/05/30 09:59:15;;;;;;;5.55;2.88;;;;;;;14.54;71.77;99248.56;130330;1098;22674;-64
2021/05/30 10:04:52;;;;;;;3.80;2.68;;;;;;;14.57;72.38;99264.44;125629;1090;22782;-64
2021/05/30 10:07:20;;;;;;;3.03;2.20;;;;;;;14.58;71.86;99258.64;129816;1101;22686;-64
2021/05/30 10:09:51;;;;;;;4.85;2.85;;;;;;;14.59;72.04;99254.80;129979;1101;22656;-65
2021/05/30 10:12:19;;;;;;;6.03;2.30;;;;;;;14.62;71.87;99261.63;129738;1101;22575;-65
2021/05/30 10:14:49;;;;;;;5.35;2.60;;;;;;;14.64;71.83;99262.16;129955;1101;22607;-64
2021/05/30 10:17:18;;;;;;;7.15;2.30;;;;;;;14.67;72.01;99269.80;129761;1101;23365;-65
2021/05/30 10:19:48;;;;;;;5.80;2.58;;;;;;;14.69;72.39;99275.82;129640;1104;22544;-64
2021/05/30 10:22:19;;;;;;;2.88;2.18;;;;;;;14.72;71.97;99275.22;129635;1104;22544;-64
2021/05/30 10:24:47;;;;;;;2.95;2.05;;;;;;;14.70;71.82;99277.45;129634;1104;22604;-64
2021/05/30 10:27:24;;;;;;;3.00;2.38;;;;;;;14.68;71.85;99276.92;129715;1104;22643;-65
2021/05/30 10:30:08;;;;;;;6.90;3.10;;;;;;;14.63;71.79;99283.27;129615;1104;22586;-65
2021/05/30 10:32:38;;;;;;;3.23;2.30;;;;;;;14.59;72.19;99284.13;129642;1104;23767;-64
2021/05/30 10:35:12;;;;;;;5.78;2.78;;;;;;;14.57;72.01;99289.12;129597;1104;22548;-62
2021/05/30 10:38:00;;;;;;;4.35;2.68;;;;;;;14.56;72.05;99290.22;129647;1104;22566;-64
2021/05/30 10:40:41;;;;;;;3.45;2.88;;;;;;;14.55;72.38;99286.66;129624;1104;22542;-64
2021/05/30 10:43:10;;;;;;;3.88;3.03;;;;;;;14.54;71.92;99286.95;129623;1104;23508;-64
2021/05/30 10:45:45;;;;;;;2.98;2.45;;;;;;;14.52;72.42;99297.38;129584;1104;22599;-64
2021/05/30 10:48:19;;;;;;;5.50;2.63;;;;;;;14.51;72.18;99296.56;129686;1104;22579;-64
2021/05/30 10:51:08;;;;;;;4.58;2.40;;;;;;;14.49;72.08;99290.55;129742;1101;23217;-64
2021/05/30 10:53:42;;;;;;;4.05;2.58;;;;;;;14.46;71.75;99302.08;129986;1101;22624;-64
2021/05/30 10:56:32;;;;;;;3.18;2.45;;;;;;;14.45;72.27;99294.97;129987;1101;22553;-64
2021/05/30 10:59:05;;;;;;;5.35;3.00;;;;;;;14.44;72.95;99290.59;130001;1101;22562;-64
2021/05/30 11:01:34;;;;;;;4.15;3.20;;;;;;;14.43;73.60;99289.77;129960;1101;22555;-64
2021/05/30 11:07:17;;;;;;;8.70;2.83;;;;;;;14.44;73.89;99283.18;129970;1101;22535;-64
2021/05/30 11:09:53;;;;;;;5.13;2.28;;;;;;;14.44;73.10;99291.41;129959;1101;22604;-65
2021/05/30 11:12:22;;;;;;;5.58;3.28;;;;;;;14.40;73.29;99298.59;129977;1101;22546;-64
2021/05/30 11:15:14;;;;;;;3.00;2.68;;;;;;;14.35;73.30;99300.52;129991;1101;23109;-65
2021/05/30 11:17:49;;;;;;;3.25;2.95;;;;;;;14.28;74.15;99306.35;129948;1101;22577;-64
2021/05/30 11:20:32;;;;;;;3.83;3.43;;;;;;;14.30;74.62;99312.34;130049;1101;22548;-65
2021/05/30 11:23:02;;;;;;;5.53;2.90;;;;;;;14.29;74.21;99316.17;129961;1101;22649;-64
2021/05/30 11:25:35;;;;;;;3.73;2.50;;;;;;;14.26;74.43;99318.70;129958;1101;22639;-65
2021/05/30 11:28:04;;;;;;;9.20;2.80;;;;;;;14.24;74.80;99324.46;130001;1101;22557;-64
2021/05/30 11:30:33;;;;;;;3.25;2.58;;;;;;;14.26;74.87;99329.66;130050;1101;22730;-64
2021/05/30 11:33:02;;;;;;;6.30;3.08;;;;;;;14.24;74.66;99335.42;129966;1101;22642;-64
2021/05/30 11:35:30;;;;;;;7.35;4.03;;;;;;;14.23;74.63;99332.97;130032;1101;23740;-64
2021/05/30 11:37:59;;;;;;;6.95;3.48;;;;;;;14.23;74.88;99336.53;129687;1101;22562;-64
2021/05/30 11:40:27;;;;;;;5.00;3.10;;;;;;;14.22;74.54;99337.63;129990;1101;22536;-64
2021/05/30 11:42:56;;;;;;;6.60;3.00;;;;;;;14.20;74.56;99337.09;129906;1101;22592;-64
2021/05/30 11:45:34;;;;;;;3.68;2.98;;;;;;;14.19;74.55;99337.38;129752;1101;22542;-64